Terminal Aerodrome Forecast
Issued by NWS Pittsburgh, PA

Current Version | Previous Version | Graphics & Text | Print | Product List | Glossary On
Versions: 1 2 3 4 5 6 7 8 9 10 11 12 13 14 15 16 17 18 19 20 21 22 23 24 25 26 27 28 29 30 31
000
FTUS41 KPBZ 212300
TAFPIT
TAF
KPIT 212322Z 2200/2306 33011KT P6SM VCSH BKN025 OVC040
     FM220200 31008KT P6SM VCSH SCT010 BKN015
     FM220600 32005KT 5SM BR VCSH OVC008
     FM221300 33008KT P6SM BKN015 OVC025
     FM221500 33009KT P6SM BKN025
     FM222100 32008KT P6SM BKN035=

USA.gov is the U.S. government's official web portal to all federal, state and local government web resources and services.